sensor_id;sensor_type;location;lat;lon;timestamp;pressure;altitude;pressure_sealevel;temperature;humidity
33280;BME280;20403;43.114;12.434;2022-11-04T00:00:21;98614.84;;;16.16;100.00
33280;BME280;20403;43.114;12.434;2022-11-04T00:02:48;98606.44;;;16.14;100.00
33280;BME280;20403;43.114;12.434;2022-11-04T00:05:13;98592.25;;;16.10;100.00
33280;BME280;20403;43.114;12.434;2022-11-04T00:07:38;98582.28;;;16.07;100.00
33280;BME280;20403;43.114;12.434;2022-11-04T00:10:22;98585.19;;;16.01;100.00
33280;BME280;20403;43.114;12.434;2022-11-04T00:13:07;98586.28;;;15.89;100.00
33280;BME280;20403;43.114;12.434;2022-11-04T00:15:36;98575.81;;;15.69;100.00
33280;BME280;20403;43.114;12.434;2022-11-04T00:18:19;98570.09;;;15.51;100.00
33280;BME280;20403;43.114;12.434;2022-11-04T00:20:44;98565.38;;;15.38;100.00
33280;BME280;20403;43.114;12.434;2022-11-04T00:23:28;98558.03;;;15.25;100.00
33280;BME280;20403;43.114;12.434;2022-11-04T00:26:12;98559.13;;;15.03;100.00
33280;BME280;20403;43.114;12.434;2022-11-04T00:28:56;98546.78;;;15.04;100.00
33280;BME280;20403;43.114;12.434;2022-11-04T00:31:21;98531.28;;;14.97;100.00
33280;BME280;20403;43.114;12.434;2022-11-04T00:34:05;98527.63;;;14.93;100.00
33280;BME280;20403;43.114;12.434;2022-11-04T00:36:30;98530.25;;;14.83;100.00
33280;BME280;20403;43.114;12.434;2022-11-04T00:38:55;98526.06;;;14.87;100.00
33280;BME280;20403;43.114;12.434;2022-11-04T00:41:21;98521.06;;;14.75;100.00
33280;BME280;20403;43.114;12.434;2022-11-04T00:43:56;98524.22;;;14.82;100.00
33280;BME280;20403;43.114;12.434;2022-11-04T00:46:22;98505.84;;;14.87;100.00
33280;BME280;20403;43.114;12.434;2022-11-04T00:48:47;98503.44;;;15.06;100.00
33280;BME280;20403;43.114;12.434;2022-11-04T00:51:13;98497.13;;;15.12;100.00
33280;BME280;20403;43.114;12.434;2022-11-04T00:53:38;98501.53;;;15.43;100.00
33280;BME280;20403;43.114;12.434;2022-11-04T00:56:04;98491.78;;;15.53;100.00
33280;BME280;20403;43.114;12.434;2022-11-04T00:58:29;98481.72;;;15.71;100.00
33280;BME280;20403;43.114;12.434;2022-11-04T01:00:54;98484.03;;;15.83;100.00
33280;BME280;20403;43.114;12.434;2022-11-04T01:03:19;98471.63;;;15.93;100.00
33280;BME280;20403;43.114;12.434;2022-11-04T01:05:45;98468.19;;;15.98;100.00
33280;BME280;20403;43.114;12.434;2022-11-04T01:08:10;98466.50;;;16.17;100.00
33280;BME280;20403;43.114;12.434;2022-11-04T01:10:35;98463.28;;;16.26;100.00
33280;BME280;20403;43.114;12.434;2022-11-04T01:13:08;98476.63;;;16.34;100.00
33280;BME280;20403;43.114;12.434;2022-11-04T01:15:33;98468.47;;;16.36;100.00
33280;BME280;20403;43.114;12.434;2022-11-04T01:18:00;98483.03;;;16.57;100.00
33280;BME280;20403;43.114;12.434;2022-11-04T01:20:25;98474.00;;;16.69;100.00
33280;BME280;20403;43.114;12.434;2022-11-04T01:22:50;98470.34;;;16.65;100.00
33280;BME280;20403;43.114;12.434;2022-11-04T01:25:15;98472.88;;;16.75;100.00
33280;BME280;20403;43.114;12.434;2022-11-04T01:27:41;98477.06;;;16.81;100.00
33280;BME280;20403;43.114;12.434;2022-11-04T01:30:06;98466.25;;;16.83;100.00
33280;BME280;20403;43.114;12.434;2022-11-04T01:32:32;98469.34;;;16.90;100.00
33280;BME280;20403;43.114;12.434;2022-11-04T01:34:57;98460.94;;;16.88;100.00
33280;BME280;20403;43.114;12.434;2022-11-04T01:37:22;98464.34;;;16.88;100.00
33280;BME280;20403;43.114;12.434;2022-11-04T01:39:47;98446.94;;;16.92;100.00
33280;BME280;20403;43.114;12.434;2022-11-04T01:42:13;98449.56;;;16.92;100.00
33280;BME280;20403;43.114;12.434;2022-11-04T01:44:47;98460.63;;;16.94;100.00
33280;BME280;20403;43.114;12.434;2022-11-04T01:49:48;98441.03;;;17.00;100.00
33280;BME280;20403;43.114;12.434;2022-11-04T01:52:16;98425.81;;;16.97;100.00
33280;BME280;20403;43.114;12.434;2022-11-04T01:54:44;98428.25;;;16.94;100.00
33280;BME280;20403;43.114;12.434;2022-11-04T01:57:11;98405.53;;;16.98;100.00
33280;BME280;20403;43.114;12.434;2022-11-04T01:59:38;98393.19;;;16.93;100.00
33280;BME280;20403;43.114;12.434;2022-11-04T02:02:05;98391.69;;;16.87;100.00
33280;BME280;20403;43.114;12.434;2022-11-04T02:04:30;98378.09;;;16.75;100.00
33280;BME280;20403;43.114;12.434;2022-11-04T02:06:57;98366.66;;;16.60;100.00
33280;BME280;20403;43.114;12.434;2022-11-04T02:09:24;98362.59;;;16.44;100.00
33280;BME280;20403;43.114;12.434;2022-11-04T02:11:50;98355.88;;;16.33;100.00
33280;BME280;20403;43.114;12.434;2022-11-04T02:14:34;98349.25;;;16.35;100.00
33280;BME280;20403;43.114;12.434;2022-11-04T02:17:27;98346.41;;;16.32;100.00
33280;BME280;20403;43.114;12.434;2022-11-04T02:22:30;98347.63;;;16.15;100.00
33280;BME280;20403;43.114;12.434;2022-11-04T02:32:33;98324.25;;;16.09;100.00
33280;BME280;20403;43.114;12.434;2022-11-04T02:35:01;98332.16;;;16.09;100.00
33280;BME280;20403;43.114;12.434;2022-11-04T02:37:32;98328.53;;;16.00;100.00
33280;BME280;20403;43.114;12.434;2022-11-04T02:42:40;98283.38;;;15.92;100.00
33280;BME280;20403;43.114;12.434;2022-11-04T02:47:34;98285.63;;;15.75;100.00
33280;BME280;20403;43.114;12.434;2022-11-04T02:50:03;98283.50;;;15.77;100.00
33280;BME280;20403;43.114;12.434;2022-11-04T02:52:44;98281.13;;;15.75;100.00
33280;BME280;20403;43.114;12.434;2022-11-04T02:55:19;98280.66;;;15.73;100.00
33280;BME280;20403;43.114;12.434;2022-11-04T02:57:45;98279.88;;;15.68;100.00
33280;BME280;20403;43.114;12.434;2022-11-04T03:00:12;98292.22;;;15.72;100.00
33280;BME280;20403;43.114;12.434;2022-11-04T03:02:50;98308.00;;;15.67;100.00
33280;BME280;20403;43.114;12.434;2022-11-04T03:05:17;98302.75;;;15.67;100.00
33280;BME280;20403;43.114;12.434;2022-11-04T03:07:44;98304.91;;;15.60;100.00
33280;BME280;20403;43.114;12.434;2022-11-04T03:10:15;98306.41;;;15.66;100.00
33280;BME280;20403;43.114;12.434;2022-11-04T03:12:53;98318.25;;;15.64;100.00
33280;BME280;20403;43.114;12.434;2022-11-04T03:15:21;98337.75;;;15.58;100.00
33280;BME280;20403;43.114;12.434;2022-11-04T03:20:24;98330.69;;;15.53;100.00
33280;BME280;20403;43.114;12.434;2022-11-04T03:22:51;98326.25;;;15.48;100.00
33280;BME280;20403;43.114;12.434;2022-11-04T03:25:19;98337.03;;;15.47;100.00
33280;BME280;20403;43.114;12.434;2022-11-04T03:30:16;98377.00;;;15.39;100.00
33280;BME280;20403;43.114;12.434;2022-11-04T03:35:23;98396.94;;;15.45;100.00
33280;BME280;20403;43.114;12.434;2022-11-04T03:37:48;98382.00;;;15.40;100.00
33280;BME280;20403;43.114;12.434;2022-11-04T03:40:14;98382.25;;;15.39;100.00
33280;BME280;20403;43.114;12.434;2022-11-04T03:42:47;98378.06;;;15.38;100.00
33280;BME280;20403;43.114;12.434;2022-11-04T03:45:16;98391.72;;;15.40;100.00
33280;BME280;20403;43.114;12.434;2022-11-04T03:47:42;98397.47;;;15.47;100.00
33280;BME280;20403;43.114;12.434;2022-11-04T03:52:33;98413.22;;;15.47;100.00
33280;BME280;20403;43.114;12.434;2022-11-04T03:54:59;98409.03;;;15.41;100.00
33280;BME280;20403;43.114;12.434;2022-11-04T04:00:04;98384.88;;;15.39;100.00
33280;BME280;20403;43.114;12.434;2022-11-04T04:02:41;98393.06;;;15.37;100.00
33280;BME280;20403;43.114;12.434;2022-11-04T04:05:19;98388.28;;;15.44;100.00
33280;BME280;20403;43.114;12.434;2022-11-04T04:07:51;98391.72;;;15.40;100.00
33280;BME280;20403;43.114;12.434;2022-11-04T04:10:24;98406.97;;;15.38;100.00
33280;BME280;20403;43.114;12.434;2022-11-04T04:18:15;98399.03;;;15.48;100.00
33280;BME280;20403;43.114;12.434;2022-11-04T04:20:42;98377.75;;;15.49;100.00
33280;BME280;20403;43.114;12.434;2022-11-04T04:23:19;98363.06;;;15.48;100.00
33280;BME280;20403;43.114;12.434;2022-11-04T04:26:05;98375.66;;;15.46;100.00
33280;BME280;20403;43.114;12.434;2022-11-04T04:28:50;98361.75;;;15.41;100.00
33280;BME280;20403;43.114;12.434;2022-11-04T04:31:18;98340.22;;;15.39;100.00
33280;BME280;20403;43.114;12.434;2022-11-04T04:34:02;98322.34;;;15.41;100.00
33280;BME280;20403;43.114;12.434;2022-11-04T04:36:28;98309.25;;;15.36;100.00
33280;BME280;20403;43.114;12.434;2022-11-04T04:38:55;98288.50;;;15.34;100.00
33280;BME280;20403;43.114;12.434;2022-11-04T04:41:39;98283.03;;;15.30;100.00
33280;BME280;20403;43.114;12.434;2022-11-04T04:44:30;98283.84;;;15.26;100.00
33280;BME280;20403;43.114;12.434;2022-11-04T04:47:18;98268.13;;;15.21;100.00
33280;BME280;20403;43.114;12.434;2022-11-04T04:49:49;98255.31;;;15.09;100.00
33280;BME280;20403;43.114;12.434;2022-11-04T04:52:15;98246.94;;;15.02;100.00
33280;BME280;20403;43.114;12.434;2022-11-04T04:54:40;98256.13;;;14.99;100.00
33280;BME280;20403;43.114;12.434;2022-11-04T04:57:05;98261.13;;;15.01;100.00
33280;BME280;20403;43.114;12.434;2022-11-04T04:59:30;98283.69;;;15.07;100.00
33280;BME280;20403;43.114;12.434;2022-11-04T05:01:56;98288.13;;;15.11;100.00
33280;BME280;20403;43.114;12.434;2022-11-04T05:04:21;98291.06;;;15.00;100.00
33280;BME280;20403;43.114;12.434;2022-11-04T05:06:46;98279.00;;;14.99;100.00
33280;BME280;20403;43.114;12.434;2022-11-04T05:09:11;98276.38;;;14.99;100.00
33280;BME280;20403;43.114;12.434;2022-11-04T05:11:37;98286.09;;;14.98;100.00
33280;BME280;20403;43.114;12.434;2022-11-04T05:14:02;98300.50;;;15.01;100.00
33280;BME280;20403;43.114;12.434;2022-11-04T05:16:27;98306.50;;;15.06;100.00
33280;BME280;20403;43.114;12.434;2022-11-04T05:18:53;98319.41;;;15.03;100.00
33280;BME280;20403;43.114;12.434;2022-11-04T05:21:18;98314.69;;;14.95;100.00
33280;BME280;20403;43.114;12.434;2022-11-04T05:23:43;98321.03;;;14.94;100.00
33280;BME280;20403;43.114;12.434;2022-11-04T05:26:08;98318.13;;;14.95;100.00
33280;BME280;20403;43.114;12.434;2022-11-04T05:28:34;98320.72;;;15.00;100.00
33280;BME280;20403;43.114;12.434;2022-11-04T05:31:02;98316.53;;;14.94;100.00
33280;BME280;20403;43.114;12.434;2022-11-04T05:33:28;98320.72;;;15.00;100.00
33280;BME280;20403;43.114;12.434;2022-11-04T05:35:53;98314.16;;;15.03;100.00
33280;BME280;20403;43.114;12.434;2022-11-04T05:38:18;98300.47;;;15.06;100.00
33280;BME280;20403;43.114;12.434;2022-11-04T05:40:44;98300.75;;;15.09;100.00
33280;BME280;20403;43.114;12.434;2022-11-04T05:43:09;98293.91;;;15.08;100.00
33280;BME280;20403;43.114;12.434;2022-11-04T05:45:34;98299.97;;;15.09;100.00
33280;BME280;20403;43.114;12.434;2022-11-04T05:48:00;98288.63;;;15.13;100.00
33280;BME280;20403;43.114;12.434;2022-11-04T05:50:26;98287.34;;;15.06;100.00
33280;BME280;20403;43.114;12.434;2022-11-04T05:52:51;98287.06;;;15.12;100.00
33280;BME280;20403;43.114;12.434;2022-11-04T05:55:16;98280.25;;;15.06;100.00
33280;BME280;20403;43.114;12.434;2022-11-04T05:57:42;98285.25;;;15.08;100.00
33280;BME280;20403;43.114;12.434;2022-11-04T06:00:07;98280.00;;;15.08;100.00
33280;BME280;20403;43.114;12.434;2022-11-04T06:02:32;98287.59;;;15.09;100.00
33280;BME280;20403;43.114;12.434;2022-11-04T06:04:58;98291.31;;;15.03;100.00
33280;BME280;20403;43.114;12.434;2022-11-04T06:07:23;98284.97;;;15.09;100.00
33280;BME280;20403;43.114;12.434;2022-11-04T06:09:48;98286.59;;;15.00;100.00
33280;BME280;20403;43.114;12.434;2022-11-04T06:12:14;98282.69;;;14.98;100.00
33280;BME280;20403;43.114;12.434;2022-11-04T06:14:40;98279.75;;;14.99;100.00
33280;BME280;20403;43.114;12.434;2022-11-04T06:17:05;98277.13;;;14.99;100.00
33280;BME280;20403;43.114;12.434;2022-11-04T06:19:31;98266.13;;;15.02;100.00
33280;BME280;20403;43.114;12.434;2022-11-04T06:21:56;98262.69;;;15.02;100.00
33280;BME280;20403;43.114;12.434;2022-11-04T06:24:21;98261.38;;;14.99;100.00
33280;BME280;20403;43.114;12.434;2022-11-04T06:26:46;98261.41;;;14.94;100.00
33280;BME280;20403;43.114;12.434;2022-11-04T06:29:12;98261.69;;;14.98;100.00
33280;BME280;20403;43.114;12.434;2022-11-04T06:31:37;98260.59;;;14.99;100.00
33280;BME280;20403;43.114;12.434;2022-11-04T06:34:02;98261.38;;;14.99;100.00
33280;BME280;20403;43.114;12.434;2022-11-04T06:36:28;98264.53;;;15.01;100.00
33280;BME280;20403;43.114;12.434;2022-11-04T06:38:53;98259.03;;;15.03;100.00
33280;BME280;20403;43.114;12.434;2022-11-04T06:41:18;98249.25;;;15.08;100.00
33280;BME280;20403;43.114;12.434;2022-11-04T06:43:43;98254.75;;;15.12;100.00
33280;BME280;20403;43.114;12.434;2022-11-04T06:48:49;98244.75;;;15.19;100.00
33280;BME280;20403;43.114;12.434;2022-11-04T06:51:14;98249.44;;;15.27;100.00
33280;BME280;20403;43.114;12.434;2022-11-04T06:53:39;98243.88;;;15.29;100.00
33280;BME280;20403;43.114;12.434;2022-11-04T06:56:05;98240.69;;;15.37;100.00
33280;BME280;20403;43.114;12.434;2022-11-04T06:58:30;98234.41;;;15.33;100.00
33280;BME280;20403;43.114;12.434;2022-11-04T07:00:56;98241.41;;;15.43;100.00
33280;BME280;20403;43.114;12.434;2022-11-04T07:03:21;98236.25;;;15.32;100.00
33280;BME280;20403;43.114;12.434;2022-11-04T07:05:46;98226.25;;;15.34;100.00
33280;BME280;20403;43.114;12.434;2022-11-04T07:08:12;98239.91;;;15.37;100.00
33280;BME280;20403;43.114;12.434;2022-11-04T07:10:37;98228.13;;;15.29;100.00
33280;BME280;20403;43.114;12.434;2022-11-04T07:13:02;98229.72;;;15.30;100.00
33280;BME280;20403;43.114;12.434;2022-11-04T07:15:27;98241.53;;;15.27;100.00
33280;BME280;20403;43.114;12.434;2022-11-04T07:17:53;98245.97;;;15.32;100.00
33280;BME280;20403;43.114;12.434;2022-11-04T07:20:18;98238.09;;;15.32;100.00
33280;BME280;20403;43.114;12.434;2022-11-04T07:22:43;98247.53;;;15.33;100.00
33280;BME280;20403;43.114;12.434;2022-11-04T07:25:08;98251.19;;;15.37;100.00
33280;BME280;20403;43.114;12.434;2022-11-04T07:27:34;98259.28;;;15.41;100.00
33280;BME280;20403;43.114;12.434;2022-11-04T07:29:59;98270.06;;;15.44;100.00
33280;BME280;20403;43.114;12.434;2022-11-04T07:32:24;98276.34;;;15.43;100.00
33280;BME280;20403;43.114;12.434;2022-11-04T07:34:49;98270.84;;;15.45;100.00
33280;BME280;20403;43.114;12.434;2022-11-04T07:37:15;98260.06;;;15.46;100.00
33280;BME280;20403;43.114;12.434;2022-11-04T07:39:40;98273.97;;;15.47;100.00
33280;BME280;20403;43.114;12.434;2022-11-04T07:42:06;98272.41;;;15.46;100.00
33280;BME280;20403;43.114;12.434;2022-11-04T07:44:32;98276.88;;;15.45;100.00
33280;BME280;20403;43.114;12.434;2022-11-04T07:46:57;98270.00;;;15.49;100.00
33280;BME280;20403;43.114;12.434;2022-11-04T07:49:22;98268.41;;;15.53;100.00
33280;BME280;20403;43.114;12.434;2022-11-04T07:51:49;98266.31;;;15.55;100.00
33280;BME280;20403;43.114;12.434;2022-11-04T07:54:14;98253.69;;;15.52;100.00
33280;BME280;20403;43.114;12.434;2022-11-04T07:56:39;98256.06;;;15.54;100.00
33280;BME280;20403;43.114;12.434;2022-11-04T07:59:05;98247.63;;;15.57;100.00
33280;BME280;20403;43.114;12.434;2022-11-04T08:01:31;98255.44;;;15.67;100.00
33280;BME280;20403;43.114;12.434;2022-11-04T08:03:56;98267.25;;;15.70;100.00
33280;BME280;20403;43.114;12.434;2022-11-04T08:06:22;98263.84;;;15.69;100.00
33280;BME280;20403;43.114;12.434;2022-11-04T08:08:48;98268.50;;;15.78;100.00
33280;BME280;20403;43.114;12.434;2022-11-04T08:11:17;98259.03;;;15.82;100.00
33280;BME280;20403;43.114;12.434;2022-11-04T08:13:43;98258.19;;;15.86;100.00
33280;BME280;20403;43.114;12.434;2022-11-04T08:16:10;98249.22;;;15.87;100.00
33280;BME280;20403;43.114;12.434;2022-11-04T08:18:37;98237.66;;;15.88;100.00
33280;BME280;20403;43.114;12.434;2022-11-04T08:21:03;98234.97;;;15.93;100.00
33280;BME280;20403;43.114;12.434;2022-11-04T08:23:28;98233.13;;;15.94;100.00
33280;BME280;20403;43.114;12.434;2022-11-04T08:25:54;98235.72;;;15.99;100.00
33280;BME280;20403;43.114;12.434;2022-11-04T08:28:20;98222.63;;;15.94;100.00
33280;BME280;20403;43.114;12.434;2022-11-04T08:30:56;98218.38;;;15.98;100.00
33280;BME280;20403;43.114;12.434;2022-11-04T08:33:22;98212.84;;;16.00;100.00
33280;BME280;20403;43.114;12.434;2022-11-04T08:35:48;98219.34;;;16.07;100.00
33280;BME280;20403;43.114;12.434;2022-11-04T08:38:13;98212.47;;;16.11;100.00
33280;BME280;20403;43.114;12.434;2022-11-04T08:40:39;98209.84;;;16.11;100.00
33280;BME280;20403;43.114;12.434;2022-11-04T08:43:04;98212.63;;;16.20;100.00
33280;BME280;20403;43.114;12.434;2022-11-04T08:45:29;98210.78;;;16.21;100.00
33280;BME280;20403;43.114;12.434;2022-11-04T08:47:55;98208.88;;;16.26;100.00
33280;BME280;20403;43.114;12.434;2022-11-04T08:50:20;98201.81;;;16.22;100.00
33280;BME280;20403;43.114;12.434;2022-11-04T08:52:51;98187.09;;;16.21;100.00
33280;BME280;20403;43.114;12.434;2022-11-04T08:55:17;98184.22;;;16.22;100.00
33280;BME280;20403;43.114;12.434;2022-11-04T08:57:42;98191.63;;;16.15;100.00
33280;BME280;20403;43.114;12.434;2022-11-04T09:00:07;98196.13;;;16.14;100.00
33280;BME280;20403;43.114;12.434;2022-11-04T09:02:33;98201.44;;;16.09;100.00
33280;BME280;20403;43.114;12.434;2022-11-04T09:04:58;98198.03;;;16.09;100.00
33280;BME280;20403;43.114;12.434;2022-11-04T09:07:23;98185.09;;;16.12;100.00
33280;BME280;20403;43.114;12.434;2022-11-04T09:09:48;98185.69;;;15.80;100.00
33280;BME280;20403;43.114;12.434;2022-11-04T09:12:14;98166.00;;;15.78;100.00
33280;BME280;20403;43.114;12.434;2022-11-04T09:14:39;98159.75;;;15.73;100.00
33280;BME280;20403;43.114;12.434;2022-11-04T09:17:04;98168.41;;;15.74;100.00
33280;BME280;20403;43.114;12.434;2022-11-04T09:19:29;98159.41;;;15.80;100.00
33280;BME280;20403;43.114;12.434;2022-11-04T09:21:56;98155.47;;;15.78;100.00
33280;BME280;20403;43.114;12.434;2022-11-04T09:24:21;98159.13;;;15.82;100.00
33280;BME280;20403;43.114;12.434;2022-11-04T09:26:47;98141.22;;;15.84;100.00
33280;BME280;20403;43.114;12.434;2022-11-04T09:29:12;98141.28;;;15.79;100.00
33280;BME280;20403;43.114;12.434;2022-11-04T09:31:37;98153.81;;;15.87;100.00
33280;BME280;20403;43.114;12.434;2022-11-04T09:34:03;98157.00;;;15.84;100.00
33280;BME280;20403;43.114;12.434;2022-11-04T09:36:28;98161.25;;;15.80;100.00
33280;BME280;20403;43.114;12.434;2022-11-04T09:38:53;98171.25;;;15.78;100.00
33280;BME280;20403;43.114;12.434;2022-11-04T09:43:47;98180.41;;;15.85;100.00
33280;BME280;20403;43.114;12.434;2022-11-04T09:46:17;98174.78;;;15.92;100.00
33280;BME280;20403;43.114;12.434;2022-11-04T09:48:46;98186.31;;;15.96;100.00
33280;BME280;20403;43.114;12.434;2022-11-04T09:51:13;98186.38;;;15.91;100.00
33280;BME280;20403;43.114;12.434;2022-11-04T09:58:36;98173.78;;;15.88;100.00
33280;BME280;20403;43.114;12.434;2022-11-04T10:01:10;98163.53;;;15.86;100.00
33280;BME280;20403;43.114;12.434;2022-11-04T10:19:16;98148.53;;;16.54;100.00
33280;BME280;20403;43.114;12.434;2022-11-04T10:24:23;98151.81;;;16.46;100.00
33280;BME280;20403;43.114;12.434;2022-11-04T10:31:50;98131.81;;;16.45;100.00
33280;BME280;20403;43.114;12.434;2022-11-04T10:34:22;98126.56;;;16.45;100.00
33280;BME280;20403;43.114;12.434;2022-11-04T10:36:51;98128.22;;;16.41;100.00
33280;BME280;20403;43.114;12.434;2022-11-04T10:39:22;98129.75;;;16.42;100.00
33280;BME280;20403;43.114;12.434;2022-11-04T10:41:49;98130.03;;;16.40;100.00
33280;BME280;20403;43.114;12.434;2022-11-04T10:52:02;98148.16;;;16.23;100.00
33280;BME280;20403;43.114;12.434;2022-11-04T10:54:27;98139.72;;;16.45;100.00
33280;BME280;20403;43.114;12.434;2022-11-04T10:56:58;98146.38;;;16.80;100.00
33280;BME280;20403;43.114;12.434;2022-11-04T10:59:27;98145.00;;;17.01;100.00
33280;BME280;20403;43.114;12.434;2022-11-04T11:01:54;98136.72;;;17.41;100.00
33280;BME280;20403;43.114;12.434;2022-11-04T11:04:24;98124.06;;;17.57;100.00
33280;BME280;20403;43.114;12.434;2022-11-04T11:06:49;98123.09;;;17.67;100.00
33280;BME280;20403;43.114;12.434;2022-11-04T11:11:46;98121.59;;;17.47;100.00
33280;BME280;20403;43.114;12.434;2022-11-04T11:14:16;98116.91;;;17.43;100.00
33280;BME280;20403;43.114;12.434;2022-11-04T11:16:42;98123.94;;;17.34;100.00
33280;BME280;20403;43.114;12.434;2022-11-04T11:19:19;98122.91;;;17.16;100.00
33280;BME280;20403;43.114;12.434;2022-11-04T11:21:46;98122.63;;;17.18;100.00
33280;BME280;20403;43.114;12.434;2022-11-04T11:24:25;98119.91;;;17.23;100.00
33280;BME280;20403;43.114;12.434;2022-11-04T11:26:55;98125.53;;;17.16;100.00
33280;BME280;20403;43.114;12.434;2022-11-04T11:29:24;98126.41;;;17.12;100.00
33280;BME280;20403;43.114;12.434;2022-11-04T11:31:51;98123.72;;;16.98;100.00
33280;BME280;20403;43.114;12.434;2022-11-04T11:34:21;98119.84;;;17.09;100.00
33280;BME280;20403;43.114;12.434;2022-11-04T11:36:50;98141.34;;;17.16;100.00
33280;BME280;20403;43.114;12.434;2022-11-04T11:39:20;98125.97;;;17.05;100.00
33280;BME280;20403;43.114;12.434;2022-11-04T11:42:32;98125.50;;;17.02;100.00
33280;BME280;20403;43.114;12.434;2022-11-04T11:44:33;98121.78;;;17.04;100.00
33280;BME280;20403;43.114;12.434;2022-11-04T11:47:03;98114.19;;;17.02;100.00
33280;BME280;20403;43.114;12.434;2022-11-04T11:49:30;98118.84;;;17.05;100.00
33280;BME280;20403;43.114;12.434;2022-11-04T11:52:22;98121.47;;;17.24;100.00
33280;BME280;20403;43.114;12.434;2022-11-04T11:54:49;98115.75;;;17.36;100.00
33280;BME280;20403;43.114;12.434;2022-11-04T12:00:02;98103.72;;;17.43;100.00
33280;BME280;20403;43.114;12.434;2022-11-04T12:02:44;98107.66;;;17.46;100.00
33280;BME280;20403;43.114;12.434;2022-11-04T12:05:11;98099.25;;;17.58;100.00
33280;BME280;20403;43.114;12.434;2022-11-04T12:07:48;98097.50;;;17.53;100.00
33280;BME280;20403;43.114;12.434;2022-11-04T12:23:02;98093.91;;;17.49;100.00
33280;BME280;20403;43.114;12.434;2022-11-04T12:28:02;98082.16;;;17.55;100.00
33280;BME280;20403;43.114;12.434;2022-11-04T12:30:34;98076.00;;;17.46;100.00
33280;BME280;20403;43.114;12.434;2022-11-04T12:40:27;98081.75;;;17.34;100.00
33280;BME280;20403;43.114;12.434;2022-11-04T12:45:37;98076.50;;;17.34;100.00
33280;BME280;20403;43.114;12.434;2022-11-04T12:48:08;98070.06;;;17.40;100.00
33280;BME280;20403;43.114;12.434;2022-11-04T13:00:54;98061.06;;;17.41;100.00
33280;BME280;20403;43.114;12.434;2022-11-04T13:03:44;98057.38;;;17.42;100.00
33280;BME280;20403;43.114;12.434;2022-11-04T13:06:22;98054.63;;;17.34;100.00
33280;BME280;20403;43.114;12.434;2022-11-04T13:08:57;98055.50;;;17.29;100.00
33280;BME280;20403;43.114;12.434;2022-11-04T13:11:29;98049.16;;;17.30;100.00
33280;BME280;20403;43.114;12.434;2022-11-04T13:16:23;98038.81;;;17.34;100.00
33280;BME280;20403;43.114;12.434;2022-11-04T13:18:49;98047.78;;;17.19;100.00
33280;BME280;20403;43.114;12.434;2022-11-04T13:21:22;98051.41;;;17.23;100.00
33280;BME280;20403;43.114;12.434;2022-11-04T13:26:28;98062.91;;;17.27;100.00
33280;BME280;20403;43.114;12.434;2022-11-04T13:29:02;98057.38;;;17.29;100.00
33280;BME280;20403;43.114;12.434;2022-11-04T13:36:40;98032.09;;;17.69;100.00
33280;BME280;20403;43.114;12.434;2022-11-04T13:39:07;98038.81;;;17.75;100.00
33280;BME280;20403;43.114;12.434;2022-11-04T13:41:46;98026.13;;;17.77;100.00
33280;BME280;20403;43.114;12.434;2022-11-04T13:44:28;98027.78;;;17.73;100.00
33280;BME280;20403;43.114;12.434;2022-11-04T13:46:59;98025.06;;;17.64;100.00
33280;BME280;20403;43.114;12.434;2022-11-04T13:49:27;98019.00;;;17.64;100.00
33280;BME280;20403;43.114;12.434;2022-11-04T13:54:30;98027.53;;;17.47;100.00
33280;BME280;20403;43.114;12.434;2022-11-04T13:57:03;98033.75;;;17.37;100.00
33280;BME280;20403;43.114;12.434;2022-11-04T13:59:30;98036.97;;;17.34;100.00
33280;BME280;20403;43.114;12.434;2022-11-04T14:04:40;98050.41;;;17.19;100.00
33280;BME280;20403;43.114;12.434;2022-11-04T14:07:09;98048.34;;;17.16;100.00
33280;BME280;20403;43.114;12.434;2022-11-04T14:09:48;98056.94;;;17.08;100.00
33280;BME280;20403;43.114;12.434;2022-11-04T14:22:20;98033.59;;;16.68;100.00
33280;BME280;20403;43.114;12.434;2022-11-04T14:24:52;98033.50;;;16.73;100.00
33280;BME280;20403;43.114;12.434;2022-11-04T14:27:25;98032.69;;;16.59;100.00
33280;BME280;20403;43.114;12.434;2022-11-04T14:29:51;98028.28;;;16.54;100.00
33280;BME280;20403;43.114;12.434;2022-11-04T14:32:20;98026.06;;;16.62;100.00
33280;BME280;20403;43.114;12.434;2022-11-04T14:34:48;98024.56;;;16.55;100.00
33280;BME280;20403;43.114;12.434;2022-11-04T14:37:21;98024.00;;;16.58;100.00
33280;BME280;20403;43.114;12.434;2022-11-04T14:39:52;98020.00;;;16.61;100.00
33280;BME280;20403;43.114;12.434;2022-11-04T14:42:39;98024.34;;;16.71;100.00
33280;BME280;20403;43.114;12.434;2022-11-04T14:45:06;98019.03;;;16.57;100.00
33280;BME280;20403;43.114;12.434;2022-11-04T14:47:32;98020.81;;;16.62;100.00
33280;BME280;20403;43.114;12.434;2022-11-04T14:54:48;98018.28;;;16.70;100.00
33280;BME280;20403;43.114;12.434;2022-11-04T14:57:19;98009.59;;;16.70;100.00
33280;BME280;20403;43.114;12.434;2022-11-04T14:59:45;98003.66;;;16.64;100.00
33280;BME280;20403;43.114;12.434;2022-11-04T15:02:12;97997.88;;;16.62;100.00
33280;BME280;20403;43.114;12.434;2022-11-04T15:04:43;97998.75;;;16.57;100.00
33280;BME280;20403;43.114;12.434;2022-11-04T15:07:19;98005.88;;;16.57;100.00
33280;BME280;20403;43.114;12.434;2022-11-04T15:09:47;98004.28;;;16.56;100.00
33280;BME280;20403;43.114;12.434;2022-11-04T15:12:15;98004.47;;;16.46;100.00
33280;BME280;20403;43.114;12.434;2022-11-04T15:15:00;98004.31;;;16.37;100.00